Time;durP1;ratioP1;P1;durP2;ratioP2;P2;SDS_P1;SDS_P2;PMS_P1;PMS_P2;Temp;Humidity;BMP_temperature;BMP_pressure;BME280_temperature;BME280_humidity;BME280_pressure;Samples;Min_cycle;Max_cycle;Signal;HPM_P1;HPM_P2
2022/04/02 00:01:24;;;;;;;7.33;5.77;;;0.80;99.90;;;;;;5115869;28;20174;-44
2022/04/02 00:03:50;;;;;;;9.67;6.60;;;0.80;99.90;;;;;;5115556;28;20731;-42
2022/04/02 00:06:16;;;;;;;7.27;5.67;;;0.80;99.90;;;;;;5116132;28;20255;-42
2022/04/02 00:08:42;;;;;;;8.60;7.13;;;0.80;99.90;;;;;;5115739;28;20565;-43
2022/04/02 00:11:08;;;;;;;9.60;7.10;;;0.90;99.90;;;;;;5097055;28;20175;-42
2022/04/02 00:13:34;;;;;;;11.30;7.00;;;0.80;99.90;;;;;;5114833;28;20167;-42
2022/04/02 00:16:01;;;;;;;7.70;5.87;;;0.80;99.90;;;;;;5115084;28;20213;-42
2022/04/02 00:18:26;;;;;;;11.10;6.33;;;0.80;99.90;;;;;;5115303;28;20501;-42
2022/04/02 00:20:52;;;;;;;10.07;7.50;;;0.80;99.90;;;;;;5115234;28;20921;-43
2022/04/02 00:23:36;;;;;;;8.20;5.73;;;0.80;99.90;;;;;;5115225;28;20172;-44
2022/04/02 00:26:14;;;;;;;8.77;5.80;;;0.80;99.90;;;;;;5115346;28;20186;-42
2022/04/02 00:28:41;;;;;;;6.70;5.87;;;0.80;99.90;;;;;;5115259;28;20505;-42
2022/04/02 00:31:08;;;;;;;7.20;5.30;;;0.80;99.90;;;;;;5115094;28;20416;-44
2022/04/02 00:33:34;;;;;;;6.70;5.80;;;0.80;99.90;;;;;;5114783;28;20420;-45
2022/04/02 00:36:00;;;;;;;5.63;4.10;;;0.80;99.90;;;;;;5114920;28;20464;-44
2022/04/02 00:38:26;;;;;;;7.43;6.63;;;0.80;99.90;;;;;;5115024;28;20401;-41
2022/04/02 00:40:52;;;;;;;8.07;5.10;;;0.80;99.90;;;;;;5115110;28;20755;-42
2022/04/02 00:43:31;;;;;;;7.47;6.50;;;0.80;99.90;;;;;;5115074;28;20191;-42
2022/04/02 00:46:01;;;;;;;8.10;5.17;;;0.80;99.90;;;;;;5114826;28;20421;-43
2022/04/02 00:48:27;;;;;;;5.77;3.90;;;0.80;99.90;;;;;;5114994;28;20439;-42
2022/04/02 00:50:56;;;;;;;9.80;4.77;;;0.80;99.90;;;;;;5114906;28;20411;-43
2022/04/02 00:53:24;;;;;;;6.20;3.53;;;0.80;99.90;;;;;;5114574;28;20868;-43
2022/04/02 00:55:50;;;;;;;4.90;3.67;;;0.80;99.90;;;;;;5114855;28;20474;-41
2022/04/02 00:58:16;;;;;;;6.13;4.70;;;0.80;99.90;;;;;;5114808;28;20416;-43
2022/04/02 01:00:42;;;;;;;7.77;4.47;;;0.80;99.90;;;;;;5114412;28;20419;-42
2022/04/02 01:03:11;;;;;;;4.07;3.43;;;0.80;99.90;;;;;;5114503;28;20412;-42
2022/04/02 01:05:37;;;;;;;4.57;3.90;;;0.80;99.90;;;;;;5114589;28;20941;-42
2022/04/02 01:08:07;;;;;;;7.87;4.47;;;0.80;99.90;;;;;;5114400;28;20404;-43
2022/04/02 01:10:33;;;;;;;4.93;3.33;;;0.80;99.90;;;;;;5114320;28;20406;-42
2022/04/02 01:12:59;;;;;;;7.07;4.37;;;0.80;99.90;;;;;;5114173;28;20438;-42
2022/04/02 01:15:26;;;;;;;4.83;4.13;;;0.80;99.90;;;;;;5114250;28;20456;-43
2022/04/02 01:17:52;;;;;;;5.23;3.70;;;0.80;99.90;;;;;;5114043;28;20182;-44
2022/04/02 01:20:18;;;;;;;6.20;3.70;;;0.80;99.90;;;;;;5114179;28;20414;-41
2022/04/02 01:22:44;;;;;;;8.13;4.40;;;0.80;99.90;;;;;;5114343;28;20412;-41
2022/04/02 01:25:10;;;;;;;6.80;3.67;;;0.80;99.90;;;;;;5113724;28;20422;-41
2022/04/02 01:27:37;;;;;;;6.60;4.27;;;0.80;99.90;;;;;;5113952;28;20498;-45
2022/04/02 01:30:03;;;;;;;6.50;3.23;;;0.80;99.90;;;;;;5113986;28;20279;-42
2022/04/02 01:32:28;;;;;;;4.77;3.30;;;0.80;99.90;;;;;;5113810;28;20417;-42
2022/04/02 01:34:54;;;;;;;6.33;3.60;;;0.70;99.90;;;;;;5114179;28;20569;-42
2022/04/02 01:37:20;;;;;;;4.77;3.97;;;0.80;99.90;;;;;;5113754;28;20197;-44
2022/04/02 01:39:45;;;;;;;5.37;4.07;;;0.70;99.90;;;;;;5114089;28;20182;-43
2022/04/02 01:42:12;;;;;;;4.40;2.90;;;0.80;99.90;;;;;;5114431;28;20170;-42
2022/04/02 01:44:38;;;;;;;5.90;3.63;;;0.80;99.90;;;;;;5113780;28;20674;-42
2022/04/02 01:47:04;;;;;;;7.53;3.83;;;0.70;99.90;;;;;;5113735;28;20501;-42
2022/04/02 01:49:29;;;;;;;5.17;3.10;;;0.70;99.90;;;;;;5113823;28;20186;-44
2022/04/02 01:51:55;;;;;;;6.53;3.57;;;0.70;99.90;;;;;;5114068;28;20177;-42
2022/04/02 01:54:20;;;;;;;4.03;3.10;;;0.70;99.90;;;;;;5113903;28;20226;-44
2022/04/02 01:56:47;;;;;;;4.23;2.13;;;0.70;99.90;;;;;;5113678;28;20195;-44
2022/04/02 01:59:13;;;;;;;4.07;2.80;;;0.70;99.90;;;;;;5113714;28;20166;-42
2022/04/02 02:01:40;;;;;;;6.30;2.43;;;0.70;99.90;;;;;;5113751;28;20410;-42
2022/04/02 02:04:06;;;;;;;5.20;3.20;;;0.70;99.90;;;;;;5113980;28;20178;-42
2022/04/02 02:06:33;;;;;;;6.33;3.10;;;0.80;99.90;;;;;;5113545;28;20440;-42
2022/04/02 02:08:59;;;;;;;3.87;3.20;;;0.70;99.90;;;;;;5113621;28;20416;-42
2022/04/02 02:11:24;;;;;;;5.17;3.27;;;0.70;99.90;;;;;;5113607;28;20454;-42
2022/04/02 02:13:51;;;;;;;5.57;2.77;;;0.70;99.90;;;;;;5113843;28;20194;-41
2022/04/02 02:16:17;;;;;;;4.63;3.00;;;0.70;99.90;;;;;;5113926;28;20202;-46
2022/04/02 02:18:43;;;;;;;4.43;3.23;;;0.70;99.90;;;;;;5113741;28;20385;-43
2022/04/02 02:21:08;;;;;;;4.27;2.50;;;0.70;99.90;;;;;;5113705;28;20225;-43
2022/04/02 02:23:34;;;;;;;8.87;3.17;;;0.70;99.90;;;;;;5113416;28;20174;-42
2022/04/02 02:26:00;;;;;;;6.20;3.33;;;0.70;99.90;;;;;;5113610;28;20269;-40
2022/04/02 02:28:25;;;;;;;3.90;1.73;;;0.70;99.90;;;;;;5113408;28;20219;-40
2022/04/02 02:30:52;;;;;;;4.93;3.17;;;0.70;99.90;;;;;;5095204;28;20176;-42
2022/04/02 02:36:02;;;;;;;7.00;2.57;;;0.60;99.90;;;;;;5113689;28;20426;-42
2022/04/02 02:38:28;;;;;;;4.77;2.90;;;0.60;99.90;;;;;;5116205;28;20399;-43
2022/04/02 02:40:53;;;;;;;4.80;3.23;;;0.60;99.90;;;;;;5117527;28;20182;-41
2022/04/02 02:43:20;;;;;;;3.60;2.70;;;0.60;99.90;;;;;;5117472;28;20285;-42
2022/04/02 02:45:46;;;;;;;5.37;2.63;;;0.60;99.90;;;;;;5117273;28;20252;-40
2022/04/02 02:48:11;;;;;;;3.07;2.77;;;0.60;99.90;;;;;;5117242;28;20771;-41
2022/04/02 02:50:37;;;;;;;6.47;3.20;;;0.50;99.90;;;;;;5117363;28;20406;-39
2022/04/02 02:53:03;;;;;;;5.00;2.60;;;0.60;99.90;;;;;;5117000;28;20183;-42
2022/04/02 02:55:28;;;;;;;3.10;2.17;;;0.50;99.90;;;;;;5098879;28;20215;-42
2022/04/02 02:57:54;;;;;;;4.43;2.67;;;0.50;99.90;;;;;;5117170;28;20666;-42
2022/04/02 03:00:20;;;;;;;3.97;2.83;;;0.60;99.90;;;;;;5116911;28;20551;-43
2022/04/02 03:02:46;;;;;;;3.50;2.70;;;0.50;99.90;;;;;;5116763;28;20205;-40
2022/04/02 03:05:16;;;;;;;5.23;2.43;;;0.50;99.90;;;;;;5116969;28;20258;-42
2022/04/02 03:07:50;;;;;;;4.70;2.93;;;0.60;99.90;;;;;;5116936;28;20538;-40
2022/04/02 03:10:20;;;;;;;3.67;2.77;;;0.60;99.90;;;;;;5116632;28;20422;-41
2022/04/02 03:12:50;;;;;;;2.50;2.23;;;0.60;99.90;;;;;;5116783;28;20439;-40
2022/04/02 03:15:16;;;;;;;5.23;2.67;;;0.60;99.90;;;;;;5116499;28;20454;-42
2022/04/02 03:17:43;;;;;;;1.63;1.53;;;0.60;99.90;;;;;;5116485;28;20495;-41
2022/04/02 03:20:11;;;;;;;4.73;3.17;;;0.70;99.90;;;;;;5116487;28;20175;-44
2022/04/02 03:22:41;;;;;;;4.10;2.43;;;0.70;99.90;;;;;;5116345;28;20412;-40
2022/04/02 03:25:11;;;;;;;4.20;2.30;;;0.70;99.90;;;;;;5116241;28;20416;-44
2022/04/02 03:27:38;;;;;;;3.93;2.50;;;0.80;99.90;;;;;;5116389;28;20393;-42
2022/04/02 03:30:06;;;;;;;3.30;2.07;;;0.80;99.90;;;;;;5116456;28;20423;-40
2022/04/02 03:32:32;;;;;;;3.37;2.10;;;0.70;99.90;;;;;;5116181;28;20436;-43
2022/04/02 03:34:57;;;;;;;4.97;2.73;;;0.70;99.90;;;;;;5116086;28;20476;-43
2022/04/02 03:37:24;;;;;;;2.60;2.00;;;0.80;99.90;;;;;;5116234;28;20611;-42
2022/04/02 03:39:51;;;;;;;5.57;3.23;;;0.70;99.90;;;;;;5116321;28;20632;-42
2022/04/02 03:42:17;;;;;;;3.30;2.10;;;0.80;99.90;;;;;;5116310;28;20841;-42
2022/04/02 03:44:42;;;;;;;4.40;2.17;;;0.80;99.90;;;;;;5115984;28;20465;-42
2022/04/02 03:47:08;;;;;;;5.30;3.10;;;0.80;99.90;;;;;;5115973;28;20206;-42
2022/04/02 03:49:34;;;;;;;3.20;2.03;;;0.80;99.90;;;;;;5116089;28;20187;-40
2022/04/02 03:51:59;;;;;;;3.50;2.07;;;0.80;99.90;;;;;;5115792;28;20188;-41
2022/04/02 03:54:25;;;;;;;2.63;2.20;;;0.80;99.90;;;;;;5097801;28;20318;-41
2022/04/02 03:56:50;;;;;;;2.67;1.73;;;0.80;99.90;;;;;;5115966;28;20226;-40
2022/04/02 03:59:16;;;;;;;3.53;2.03;;;0.80;99.90;;;;;;5115977;28;20174;-41
2022/04/02 04:01:42;;;;;;;4.20;2.50;;;0.90;99.90;;;;;;5115578;28;20264;-42
2022/04/02 04:04:08;;;;;;;5.27;2.30;;;0.90;99.90;;;;;;5115836;28;20186;-42
2022/04/02 04:06:34;;;;;;;4.50;2.37;;;0.90;99.90;;;;;;5115766;28;20210;-43
2022/04/02 04:09:00;;;;;;;4.37;2.37;;;0.90;99.90;;;;;;5115398;28;20174;-41
2022/04/02 04:11:26;;;;;;;3.43;2.53;;;0.90;99.90;;;;;;5115419;28;20494;-39
2022/04/02 04:13:53;;;;;;;4.53;2.43;;;0.90;99.90;;;;;;5114693;28;20202;-42
2022/04/02 04:16:19;;;;;;;2.87;2.00;;;0.90;99.90;;;;;;5114525;28;20431;-40
2022/04/02 04:18:45;;;;;;;3.00;1.93;;;0.90;99.90;;;;;;5114598;28;20965;-43
2022/04/02 04:21:12;;;;;;;5.13;2.33;;;0.90;99.90;;;;;;5114623;28;20655;-42
2022/04/02 04:23:38;;;;;;;5.93;2.47;;;0.90;99.90;;;;;;5114529;28;20180;-41
2022/04/02 04:26:04;;;;;;;3.83;1.90;;;1.00;99.90;;;;;;5114375;28;20430;-42
2022/04/02 04:28:29;;;;;;;4.80;2.20;;;0.90;99.90;;;;;;5114195;28;20499;-41
2022/04/02 04:30:55;;;;;;;4.83;2.87;;;0.90;99.90;;;;;;5114398;28;20181;-42
2022/04/02 04:33:21;;;;;;;5.13;2.20;;;0.90;99.90;;;;;;5114357;28;20182;-42
2022/04/02 04:35:46;;;;;;;3.80;2.50;;;0.90;99.90;;;;;;5095733;28;20245;-43
2022/04/02 04:38:12;;;;;;;6.10;2.50;;;0.90;99.90;;;;;;5114240;28;20181;-43
2022/04/02 04:40:38;;;;;;;4.73;2.37;;;0.90;99.90;;;;;;5095722;28;20187;-43
2022/04/02 04:43:04;;;;;;;3.67;2.40;;;1.00;99.90;;;;;;5114001;28;20174;-40
2022/04/02 04:45:29;;;;;;;2.80;2.20;;;1.00;99.90;;;;;;5096257;28;20234;-41
2022/04/02 04:47:55;;;;;;;2.80;2.33;;;1.00;99.90;;;;;;5114285;28;20185;-40
2022/04/02 04:50:20;;;;;;;5.57;2.03;;;1.00;99.90;;;;;;5114094;28;20548;-42
2022/04/02 04:52:46;;;;;;;2.73;2.23;;;1.00;99.90;;;;;;5114227;28;20174;-41
2022/04/02 04:55:11;;;;;;;3.50;2.17;;;1.00;99.90;;;;;;5115144;28;20675;-42
2022/04/02 04:57:37;;;;;;;3.57;2.60;;;0.90;99.90;;;;;;5115304;28;20573;-42
2022/04/02 05:00:04;;;;;;;5.33;2.60;;;1.00;99.90;;;;;;5096086;28;20257;-40
2022/04/02 05:02:30;;;;;;;4.07;2.50;;;0.90;99.90;;;;;;5113735;28;20171;-43
2022/04/02 05:04:56;;;;;;;4.53;1.87;;;0.90;99.90;;;;;;5113952;28;20416;-40
2022/04/02 05:07:22;;;;;;;3.50;2.33;;;0.90;99.90;;;;;;5113471;28;20194;-44
2022/04/02 05:09:48;;;;;;;2.83;1.80;;;0.90;99.90;;;;;;5113911;28;20589;-40
2022/04/02 05:12:15;;;;;;;3.70;2.00;;;0.90;99.90;;;;;;5074731;28;1108151;-43
2022/04/02 05:14:41;;;;;;;3.30;2.40;;;0.90;99.90;;;;;;5114177;28;20674;-42
2022/04/02 05:17:06;;;;;;;4.17;2.57;;;0.90;99.90;;;;;;5114210;28;20519;-42
2022/04/02 05:19:32;;;;;;;3.07;2.37;;;0.90;99.90;;;;;;5114291;28;20265;-42
2022/04/02 05:21:58;;;;;;;5.93;3.47;;;0.90;99.90;;;;;;5096235;28;20205;-40
2022/04/02 05:24:24;;;;;;;3.77;2.53;;;0.90;99.90;;;;;;5115037;28;20182;-42
2022/04/02 05:26:50;;;;;;;4.87;2.27;;;1.00;99.90;;;;;;5114000;28;20198;-42
2022/04/02 05:29:16;;;;;;;3.83;2.10;;;1.00;99.90;;;;;;5114878;28;20771;-41
2022/04/02 05:31:42;;;;;;;4.63;2.30;;;1.00;99.90;;;;;;5114355;28;20186;-41
2022/04/02 05:34:08;;;;;;;4.30;2.30;;;1.00;99.90;;;;;;5113889;28;20474;-40
2022/04/02 05:36:35;;;;;;;2.80;1.93;;;1.10;99.90;;;;;;5114133;28;20206;-41
2022/04/02 05:39:00;;;;;;;5.60;2.30;;;1.10;99.90;;;;;;5114012;28;20453;-42
2022/04/02 05:41:26;;;;;;;5.37;2.80;;;1.10;99.90;;;;;;5114261;28;20786;-43
2022/04/02 05:43:52;;;;;;;6.57;2.70;;;1.20;99.90;;;;;;5114129;28;20256;-41
2022/04/02 05:46:17;;;;;;;3.63;2.40;;;1.10;99.90;;;;;;5113821;28;20243;-42
2022/04/02 05:48:43;;;;;;;8.40;3.37;;;1.20;99.90;;;;;;5095655;28;20179;-41
2022/04/02 05:51:09;;;;;;;4.53;2.20;;;1.20;99.90;;;;;;5095563;28;20535;-41
2022/04/02 05:53:35;;;;;;;4.97;3.07;;;1.10;99.90;;;;;;5114051;28;20184;-43
2022/04/02 05:56:02;;;;;;;3.67;2.40;;;1.20;99.90;;;;;;5113817;28;20908;-43
2022/04/02 05:58:28;;;;;;;3.90;2.50;;;1.20;99.90;;;;;;5095502;28;20199;-41
2022/04/02 06:00:54;;;;;;;2.33;1.67;;;1.20;99.90;;;;;;5113731;28;20940;-44
2022/04/02 06:03:20;;;;;;;6.43;2.63;;;1.20;99.90;;;;;;5113752;28;20882;-45
2022/04/02 06:05:48;;;;;;;4.33;2.57;;;1.20;99.90;;;;;;5113579;28;20428;-43
2022/04/02 06:08:15;;;;;;;6.40;2.73;;;1.20;99.90;;;;;;5113805;28;20404;-43
2022/04/02 06:10:41;;;;;;;8.40;2.87;;;1.30;99.90;;;;;;5114108;28;20490;-43
2022/04/02 06:13:07;;;;;;;3.90;2.37;;;1.30;99.90;;;;;;5098400;28;20952;-42
2022/04/02 06:15:34;;;;;;;7.63;2.87;;;1.20;99.90;;;;;;5117819;28;20617;-48
2022/04/02 06:18:00;;;;;;;3.03;2.10;;;1.30;99.90;;;;;;5117815;28;20546;-48
2022/04/02 06:20:26;;;;;;;3.87;2.07;;;1.30;99.90;;;;;;5117672;28;20420;-49
2022/04/02 06:22:51;;;;;;;6.27;2.60;;;1.30;99.90;;;;;;5099245;28;20197;-47
2022/04/02 06:25:17;;;;;;;3.70;2.70;;;1.40;99.90;;;;;;5117444;28;20639;-49
2022/04/02 06:27:47;;;;;;;4.93;2.77;;;1.40;99.90;;;;;;5099251;28;20212;-47
2022/04/02 06:30:17;;;;;;;3.47;2.37;;;1.40;99.90;;;;;;5099282;28;20228;-48
2022/04/02 06:32:43;;;;;;;6.90;3.13;;;1.40;99.90;;;;;;5099195;28;20408;-49
2022/04/02 06:35:10;;;;;;;4.87;2.83;;;1.40;99.90;;;;;;5117087;28;20532;-49
2022/04/02 06:37:37;;;;;;;3.87;2.30;;;1.50;99.90;;;;;;5098986;28;20170;-48
2022/04/02 06:40:04;;;;;;;5.93;2.90;;;1.50;99.90;;;;;;5098980;28;20455;-49
2022/04/02 06:42:30;;;;;;;3.17;2.47;;;1.50;99.90;;;;;;5117111;28;20473;-49
2022/04/02 06:44:56;;;;;;;5.57;2.77;;;1.40;99.90;;;;;;5117123;28;20412;-49
2022/04/02 06:47:30;;;;;;;4.60;3.23;;;1.50;99.90;;;;;;5117046;28;20428;-48
2022/04/02 06:49:57;;;;;;;5.23;2.50;;;1.50;99.90;;;;;;5099500;28;20265;-49
2022/04/02 06:52:24;;;;;;;5.03;2.70;;;1.50;99.90;;;;;;5117007;28;20443;-48
2022/04/02 06:54:50;;;;;;;5.43;2.60;;;1.50;99.90;;;;;;5098757;28;20815;-48
2022/04/02 06:57:22;;;;;;;4.80;2.70;;;1.50;99.90;;;;;;5117026;28;20428;-49
2022/04/02 06:59:48;;;;;;;3.83;2.73;;;1.50;99.90;;;;;;5098484;28;20252;-48
2022/04/02 07:02:15;;;;;;;4.33;2.80;;;1.50;99.90;;;;;;5117089;28;20901;-49
2022/04/02 07:04:41;;;;;;;4.27;2.70;;;1.50;99.90;;;;;;5116789;28;20423;-48
2022/04/02 07:07:08;;;;;;;4.77;3.30;;;1.60;99.90;;;;;;5099014;28;20436;-49
2022/04/02 07:09:34;;;;;;;5.50;3.00;;;1.60;99.90;;;;;;5117204;28;20205;-48
2022/04/02 07:12:01;;;;;;;8.20;3.00;;;1.60;99.90;;;;;;5116847;28;20450;-49
2022/04/02 07:14:27;;;;;;;7.00;3.40;;;1.60;99.90;;;;;;5098310;28;20455;-48
2022/04/02 07:16:53;;;;;;;5.17;3.00;;;1.70;99.90;;;;;;5098281;28;20435;-49
2022/04/02 07:19:21;;;;;;;5.40;2.40;;;1.70;99.90;;;;;;5117039;28;20413;-48
2022/04/02 07:21:47;;;;;;;3.30;2.63;;;1.70;99.90;;;;;;5116789;28;20166;-49
2022/04/02 07:24:16;;;;;;;5.30;3.23;;;1.70;99.90;;;;;;5097776;28;20453;-48
2022/04/02 07:26:44;;;;;;;4.60;2.70;;;1.80;99.90;;;;;;5116360;28;20432;-49
2022/04/02 07:29:10;;;;;;;3.70;2.73;;;1.80;99.90;;;;;;5116762;28;20399;-48
2022/04/02 07:31:35;;;;;;;6.70;3.03;;;1.80;99.90;;;;;;5116262;28;20490;-48
2022/04/02 07:34:01;;;;;;;3.50;2.57;;;1.80;99.90;;;;;;5116435;28;20198;-48
2022/04/02 07:36:35;;;;;;;4.73;3.27;;;1.90;99.90;;;;;;5116185;28;20197;-48
2022/04/02 07:39:41;;;;;;;4.37;3.07;;;1.90;99.90;;;;;;5116310;28;20194;-50
2022/04/02 07:42:19;;;;;;;5.50;2.97;;;1.90;99.90;;;;;;5098036;28;20432;-50
2022/04/02 07:44:58;;;;;;;3.57;2.83;;;1.90;99.90;;;;;;5116346;28;20415;-48
2022/04/02 07:47:28;;;;;;;6.10;3.07;;;1.90;99.90;;;;;;5116049;28;20525;-48
2022/04/02 07:50:00;;;;;;;4.73;3.03;;;2.00;99.90;;;;;;5116347;28;20416;-48
2022/04/02 07:52:27;;;;;;;5.00;3.20;;;2.00;99.90;;;;;;5097929;28;20461;-48
2022/04/02 07:54:56;;;;;;;4.50;2.83;;;2.10;99.90;;;;;;5116458;28;20503;-49
2022/04/02 07:57:46;;;;;;;5.10;2.37;;;2.10;99.90;;;;;;5116060;28;20425;-48
2022/04/02 08:00:14;;;;;;;7.03;2.93;;;2.10;99.90;;;;;;5115150;28;20419;-48
2022/04/02 08:02:43;;;;;;;5.97;3.00;;;2.10;99.90;;;;;;5097765;28;20416;-48
2022/04/02 08:05:20;;;;;;;2.87;2.00;;;2.20;99.90;;;;;;5098022;28;20469;-48
2022/04/02 08:07:52;;;;;;;5.93;3.03;;;2.20;99.90;;;;;;5116298;28;20451;-50
2022/04/02 08:10:20;;;;;;;5.70;3.00;;;2.20;99.90;;;;;;5097673;28;20910;-47
2022/04/02 08:12:46;;;;;;;5.60;2.27;;;2.30;99.90;;;;;;5115586;28;20476;-48
2022/04/02 08:15:17;;;;;;;3.90;2.83;;;2.30;99.90;;;;;;5115408;28;20459;-46
2022/04/02 08:17:53;;;;;;;4.83;2.53;;;2.40;99.90;;;;;;5116025;28;20397;-48
2022/04/02 08:20:19;;;;;;;3.67;3.07;;;2.40;99.90;;;;;;5115864;28;20384;-45
2022/04/02 08:22:46;;;;;;;5.90;3.00;;;2.50;99.90;;;;;;5115724;28;20410;-47
2022/04/02 08:25:13;;;;;;;5.77;3.10;;;2.50;99.90;;;;;;5115682;28;20170;-46
2022/04/02 08:27:51;;;;;;;3.83;2.30;;;2.50;99.90;;;;;;5115692;28;20452;-47
2022/04/02 08:30:22;;;;;;;2.60;2.30;;;2.60;99.90;;;;;;5115216;28;20405;-47
2022/04/02 08:33:26;;;;;;;4.93;2.73;;;2.60;99.90;;;;;;5115315;28;20400;-46
2022/04/02 08:36:03;;;;;;;4.50;3.40;;;2.60;99.90;;;;;;5114485;28;20483;-46
2022/04/02 08:38:47;;;;;;;4.00;2.70;;;2.60;99.90;;;;;;5115083;28;20404;-47
2022/04/02 08:41:44;;;;;;;4.27;3.10;;;2.60;99.90;;;;;;5115407;28;20396;-49
2022/04/02 08:44:09;;;;;;;5.43;3.40;;;2.60;99.90;;;;;;5115114;28;20397;-49
2022/04/02 08:46:43;;;;;;;4.47;3.37;;;2.60;99.90;;;;;;5114729;28;20527;-49
2022/04/02 08:49:23;;;;;;;5.60;3.43;;;2.70;99.90;;;;;;5114952;28;20157;-49
2022/04/02 08:52:15;;;;;;;6.40;3.23;;;2.80;99.90;;;;;;5114653;28;20420;-48
2022/04/02 08:55:12;;;;;;;5.77;2.70;;;2.90;99.90;;;;;;5096358;28;20456;-49
2022/04/02 08:57:53;;;;;;;4.03;2.27;;;2.90;99.90;;;;;;5096443;28;20916;-49
2022/04/02 09:00:23;;;;;;;4.17;2.60;;;3.00;99.90;;;;;;5096402;28;20501;-49
2022/04/02 09:02:49;;;;;;;5.07;3.20;;;3.00;99.90;;;;;;5096293;28;20411;-48
2022/04/02 09:05:25;;;;;;;3.90;2.23;;;3.00;99.90;;;;;;5114479;28;20415;-49
2022/04/02 09:08:18;;;;;;;3.73;2.97;;;3.10;99.90;;;;;;5114616;28;20212;-49
2022/04/02 09:10:44;;;;;;;8.13;4.40;;;3.10;99.90;;;;;;5114363;28;20913;-49
2022/04/02 09:13:43;;;;;;;4.37;3.03;;;3.10;99.90;;;;;;5095954;28;20437;-49
2022/04/02 09:16:38;;;;;;;2.30;2.10;;;3.30;99.90;;;;;;5096042;28;20327;-50
2022/04/02 09:19:18;;;;;;;4.40;2.70;;;3.30;99.90;;;;;;5066699;28;20191;-50
2022/04/02 09:22:04;;;;;;;4.33;2.40;;;3.30;99.90;;;;;;5114244;28;20203;-48
2022/04/02 09:24:48;;;;;;;3.93;2.80;;;3.30;99.90;;;;;;5114463;28;20396;-49
2022/04/02 09:27:22;;;;;;;4.07;2.47;;;3.30;99.90;;;;;;5114140;28;20211;-49
2022/04/02 09:30:02;;;;;;;3.43;2.93;;;3.30;99.90;;;;;;5114114;28;20592;-48
2022/04/02 09:32:40;;;;;;;6.87;3.73;;;3.40;99.90;;;;;;5114059;28;20251;-49
2022/04/02 09:35:23;;;;;;;3.00;2.20;;;3.40;99.90;;;;;;5114005;28;20628;-49
2022/04/02 09:38:26;;;;;;;5.73;3.90;;;3.40;99.90;;;;;;5114038;28;20172;-47
2022/04/02 09:40:57;;;;;;;2.67;2.10;;;3.40;99.90;;;;;;5114233;28;20160;-48
2022/04/02 09:43:28;;;;;;;6.07;3.73;;;3.40;99.90;;;;;;5114288;28;20172;-48
2022/04/02 09:46:03;;;;;;;4.67;2.70;;;3.40;99.90;;;;;;5114214;28;20205;-48
2022/04/02 09:48:52;;;;;;;2.77;2.50;;;3.40;99.90;;;;;;5113850;28;20177;-49
2022/04/02 09:51:21;;;;;;;6.03;3.57;;;3.40;99.90;;;;;;5095636;28;20230;-49
2022/04/02 09:54:12;;;;;;;4.73;3.73;;;3.50;99.90;;;;;;5113843;28;20516;-49
2022/04/02 09:56:41;;;;;;;7.47;4.40;;;3.50;99.90;;;;;;5108743;28;20683;-50
2022/04/02 09:59:24;;;;;;;5.10;3.27;;;3.50;99.90;;;;;;5113902;28;20170;-48
2022/04/02 10:02:03;;;;;;;8.67;3.93;;;3.60;99.90;;;;;;5113882;28;20172;-49
2022/04/02 10:04:56;;;;;;;5.80;3.30;;;3.60;99.90;;;;;;5113888;28;20172;-48
2022/04/02 10:07:51;;;;;;;7.33;3.90;;;3.60;99.90;;;;;;5110098;28;20217;-48
2022/04/02 10:10:19;;;;;;;5.87;2.73;;;3.60;99.90;;;;;;5114010;28;20177;-50
2022/04/02 10:12:48;;;;;;;7.07;2.10;;;3.60;99.90;;;;;;5113435;28;20209;-51
2022/04/02 10:15:14;;;;;;;4.03;3.10;;;3.70;99.90;;;;;;5113762;28;20264;-48
2022/04/02 10:17:46;;;;;;;5.30;3.27;;;3.60;99.90;;;;;;5095346;28;20177;-49
2022/04/02 10:20:13;;;;;;;5.83;2.80;;;3.60;99.90;;;;;;5113721;28;20257;-49
2022/04/02 10:22:43;;;;;;;4.30;3.03;;;3.70;99.90;;;;;;5095183;28;20200;-48
2022/04/02 10:25:11;;;;;;;3.70;3.13;;;3.70;99.90;;;;;;5113405;28;20677;-48
2022/04/02 10:27:40;;;;;;;6.23;3.50;;;3.70;99.90;;;;;;5113477;28;20173;-48
2022/04/02 10:30:07;;;;;;;5.67;3.00;;;3.70;99.90;;;;;;5113609;28;20186;-48
2022/04/02 10:32:53;;;;;;;5.17;3.30;;;3.80;99.90;;;;;;5113299;28;20239;-48
2022/04/02 10:35:24;;;;;;;3.67;2.60;;;3.80;99.90;;;;;;5095012;28;20248;-47
2022/04/02 10:38:15;;;;;;;3.37;2.97;;;3.80;99.90;;;;;;5095506;28;20170;-48
2022/04/02 10:40:48;;;;;;;4.00;3.20;;;3.90;99.90;;;;;;5113466;28;20166;-48
2022/04/02 10:43:28;;;;;;;6.60;3.30;;;4.00;99.90;;;;;;5113660;28;20174;-48
2022/04/02 10:45:56;;;;;;;3.77;3.00;;;4.00;99.90;;;;;;5094974;28;20200;-48
2022/04/02 10:48:50;;;;;;;6.10;4.20;;;4.00;99.90;;;;;;5113301;28;20188;-48
2022/04/02 10:51:21;;;;;;;4.20;3.67;;;4.00;99.90;;;;;;5113499;28;20166;-50
2022/04/02 10:53:47;;;;;;;4.60;3.67;;;3.90;99.90;;;;;;5113363;28;20197;-49
2022/04/02 10:56:17;;;;;;;5.90;5.30;;;3.90;99.90;;;;;;5113203;28;20198;-50
2022/04/02 10:58:50;;;;;;;6.47;4.70;;;3.80;99.90;;;;;;5115197;28;20246;-48
2022/04/02 11:01:21;;;;;;;4.50;4.10;;;3.80;99.90;;;;;;5117119;28;20159;-48
2022/04/02 11:03:55;;;;;;;6.30;4.70;;;3.80;99.90;;;;;;5116970;28;20626;-48
2022/04/02 11:06:44;;;;;;;8.03;4.13;;;3.70;99.90;;;;;;5117036;28;20556;-49
2022/04/02 11:09:25;;;;;;;8.30;6.10;;;3.70;99.90;;;;;;5116771;28;20177;-48
2022/04/02 11:11:52;;;;;;;8.37;6.23;;;3.50;99.90;;;;;;5116681;28;20201;-47
2022/04/02 11:14:20;;;;;;;8.10;7.03;;;3.30;99.90;;;;;;5116702;28;20301;-47
2022/04/02 11:16:46;;;;;;;6.77;4.80;;;3.30;99.90;;;;;;5116907;28;20553;-48
2022/04/02 11:22:22;;;;;;;7.97;4.63;;;3.20;99.90;;;;;;5101699;28;20212;-49
2022/04/02 11:25:06;;;;;;;5.80;4.33;;;3.40;99.90;;;;;;5116695;28;20253;-48
2022/04/02 11:27:37;;;;;;;7.33;4.70;;;3.50;99.90;;;;;;5117146;28;20250;-48
2022/04/02 11:30:11;;;;;;;4.67;4.17;;;3.70;99.90;;;;;;5098398;28;20547;-48
2022/04/02 11:32:42;;;;;;;4.93;3.67;;;3.80;99.90;;;;;;5116369;28;20186;-48
2022/04/02 11:35:18;;;;;;;8.23;5.43;;;3.90;99.90;;;;;;5116466;28;20235;-47
2022/04/02 11:38:19;;;;;;;6.77;5.17;;;3.90;99.90;;;;;;5098780;28;20540;-48
2022/04/02 11:41:14;;;;;;;6.33;5.27;;;3.80;99.90;;;;;;5090783;28;20273;-48
2022/04/02 11:43:43;;;;;;;6.50;5.40;;;3.60;99.90;;;;;;5116645;28;20224;-48
2022/04/02 11:46:11;;;;;;;7.13;5.87;;;3.50;99.90;;;;;;5116011;28;20195;-48
2022/04/02 11:48:49;;;;;;;9.23;6.67;;;3.50;99.90;;;;;;5116733;28;20620;-49
2022/04/02 11:51:26;;;;;;;11.00;6.40;;;3.60;99.90;;;;;;5116361;28;20689;-47
2022/04/02 11:53:52;;;;;;;10.23;5.80;;;3.70;99.90;;;;;;5115965;28;20596;-50
2022/04/02 11:56:44;;;;;;;9.43;4.70;;;3.90;99.90;;;;;;5115856;28;20252;-47
2022/04/02 11:59:17;;;;;;;6.73;5.40;;;3.90;99.90;;;;;;5116221;28;20171;-48
2022/04/02 12:01:43;;;;;;;7.87;6.47;;;3.70;99.90;;;;;;5116019;28;20171;-49
2022/04/02 12:04:13;;;;;;;6.93;6.23;;;3.60;99.90;;;;;;5116508;28;20179;-48
2022/04/02 12:06:40;;;;;;;7.00;5.80;;;3.60;99.90;;;;;;5115851;28;20211;-48
2022/04/02 12:09:15;;;;;;;6.60;5.00;;;3.60;99.90;;;;;;5115247;28;20174;-49
2022/04/02 12:11:43;;;;;;;8.53;4.80;;;3.70;99.90;;;;;;5115256;28;20537;-48
2022/04/02 12:14:10;;;;;;;6.10;4.73;;;3.80;99.90;;;;;;5115804;28;20183;-49
2022/04/02 12:16:38;;;;;;;6.20;4.93;;;3.90;99.90;;;;;;5115507;28;20192;-48
2022/04/02 12:19:09;;;;;;;6.80;5.63;;;4.00;99.90;;;;;;5115547;28;20182;-48
2022/04/02 12:21:40;;;;;;;7.70;6.50;;;4.10;99.90;;;;;;5097510;28;20585;-48
2022/04/02 12:24:05;;;;;;;7.47;5.67;;;4.10;99.90;;;;;;5115551;28;20233;-50
2022/04/02 12:26:32;;;;;;;6.37;5.10;;;4.30;99.90;;;;;;5115245;28;20196;-48
2022/04/02 12:29:01;;;;;;;5.53;4.80;;;4.30;99.90;;;;;;5115222;28;20187;-48
2022/04/02 12:31:30;;;;;;;4.97;3.93;;;4.40;99.90;;;;;;5115262;28;20195;-49
2022/04/02 12:33:57;;;;;;;6.53;4.77;;;4.30;99.90;;;;;;5115087;28;20236;-49
2022/04/02 12:36:34;;;;;;;6.47;5.00;;;4.30;99.90;;;;;;5115341;28;20231;-48
2022/04/02 12:39:08;;;;;;;7.73;5.47;;;4.30;99.90;;;;;;5115232;28;20170;-49
2022/04/02 12:41:47;;;;;;;9.93;5.83;;;4.30;99.90;;;;;;5115190;28;20200;-49
2022/04/02 12:44:19;;;;;;;6.57;5.40;;;4.30;99.90;;;;;;5115471;28;20637;-50
2022/04/02 12:46:45;;;;;;;5.47;4.87;;;4.40;99.90;;;;;;5115408;28;20586;-48
2022/04/02 12:49:31;;;;;;;6.77;5.07;;;4.60;99.90;;;;;;5115030;28;20235;-47
2022/04/02 12:52:16;;;;;;;5.80;4.87;;;4.70;99.90;;;;;;5114978;28;20217;-48
2022/04/02 12:54:50;;;;;;;5.87;5.20;;;4.70;99.90;;;;;;5114946;28;20204;-48
2022/04/02 12:57:17;;;;;;;8.30;5.90;;;4.90;99.90;;;;;;5114949;28;20203;-50
2022/04/02 12:59:50;;;;;;;6.80;5.60;;;4.90;99.90;;;;;;5115090;28;20176;-48
2022/04/02 13:02:20;;;;;;;6.00;5.03;;;4.90;99.90;;;;;;5114804;28;20168;-48
2022/04/02 13:04:56;;;;;;;7.60;6.80;;;4.80;99.90;;;;;;5115275;28;20215;-48
2022/04/02 13:07:22;;;;;;;10.57;7.87;;;4.60;99.90;;;;;;5115016;28;20669;-48
2022/04/02 13:09:52;;;;;;;9.87;6.40;;;4.40;99.90;;;;;;5114900;28;20199;-48
2022/04/02 13:12:22;;;;;;;6.37;5.67;;;4.20;99.90;;;;;;5114761;28;20200;-47
2022/04/02 13:15:03;;;;;;;6.70;6.00;;;4.10;99.90;;;;;;5114477;28;20196;-47
2022/04/02 13:20:28;;;;;;;6.00;5.23;;;4.10;99.90;;;;;;5114762;28;20230;-47
2022/04/02 13:20:30;;;;;;;7.33;6.43;;;4.00;99.90;;;;;;5114217;28;20166;-48